• Join FlightAware (Why Join?)
  • Login
  • US Flag 
10:27PM EST


 

Airport Tracker/Info


-or-


 

Live Flight TrackerFlight Track Log ✈ OPT438 ✈ 12-Feb-2014 ✈ KCEF - KCGF

Flight Track Log - Related Links

Times and Time Zones

All times are in EST time to prevent confusion due to time zone crossing. See the OPT438 flight status page for this flight to view local times or setup timezone preferences in your user account.

Time Position Orientation Groundspeed Altitude Reporting Facility
EST Latitude Longitude Course Direction KTS MPH feet Rate Location/Type
05:37PM 42.2133 -72.5183 265° West 195 224 1,800  Level Boston Center
05:38PM 42.2567 -72.5872 310° West 255 293 4,900 3,180 Climbing Boston Center
05:39PM 42.2661 -72.6872 277° West 270 311 8,400 3,060 Climbing Boston Center
05:40PM 42.2764 -72.7903 278° West 278 320 11,200 2,400 Climbing Boston Center
05:41PM 42.2883 -72.9133 278° West 309 356 13,300 1,920 Climbing Boston Center
05:42PM 42.2833 -73.0386 267° West 334 384 15,200 1,860 Climbing Boston Center
05:43PM 42.2593 -73.1547 265° West  Level FlightAware Approximate
05:43PM 42.2733 -73.1658 264° West 340 391 17,200  Level Boston Center
05:45PM 42.2603 -73.3047 263° West 346 398 18,800 1,620 Climbing Boston Center
05:46PM 42.2483 -73.4325 263° West 348 400 20,600 1,800 Climbing Boston Center
05:47PM 42.2369 -73.5603 263° West 346 398 22,600 1,920 Climbing Boston Center
05:48PM 42.2253 -73.6864 263° West 341 392 24,600 1,860 Climbing Boston Center
05:49PM 42.2142 -73.8097 263° West 327 376 26,500 1,740 Climbing Boston Center
05:50PM 42.2036 -73.9253 263° West 315 362 28,200 1,500 Climbing Boston Center
05:51PM 42.1925 -74.0422 263° West 314 361 29,600 1,020 Climbing Boston Center
05:52PM 42.1800 -74.1614 262° West 321 369 30,500 900 Climbing Boston Center
05:53PM 42.1667 -74.3061 263° West 325 374 31,900 1,620 Climbing Boston Center
05:54PM 42.1528 -74.4447 262° West 302 348 34,200 2,220 Climbing Boston Center
05:55PM 42.1425 -74.5619 263° West 263 303 36,500 1,620 Climbing Boston Center
05:56PM 42.1331 -74.6489 262° West 239 275 37,600 720 Climbing Boston Center
05:57PM 42.1236 -74.7375 262° West 239 275 38,000 180 Climbing Boston Center
05:58PM 42.1142 -74.8300 262° West 248 285 38,000  Level Boston Center
05:59PM 42.1047 -74.9239 262° West 252 290 38,000  Level Boston Center
06:00PM 42.0950 -75.0156 262° West 249 287 38,000  Level Boston Center
06:01PM 42.0853 -75.1083 262° West 250 288 38,000  Level Boston Center
06:02PM 42.0753 -75.2050 262° West 251 289 38,000  Level Boston Center
06:03PM 42.0642 -75.2958 261° West 247 284 38,000  Level Boston Center
06:04PM 42.0375 -75.3792 247° West 251 289 38,000  Level Boston Center
06:05PM 41.9989 -75.4761 242° Southwest 247 284 38,000  Level New York Center
06:06PM 41.9664 -75.5547 241° Southwest 247 284 38,000  Level New York Center
06:07PM 41.9342 -75.6331 241° Southwest 247 284 38,000  Level New York Center
06:08PM 41.9017 -75.7117 241° Southwest 242 278 38,000  Level New York Center
06:09PM 41.8672 -75.7925 240° Southwest 242 278 38,000  Level New York Center
06:10PM 41.8347 -75.8708 241° Southwest 242 278 38,000  Level New York Center
06:11PM 41.8022 -75.9492 241° Southwest 242 278 38,000  Level New York Center
06:12PM 41.7694 -76.0272 241° Southwest 237 273 38,000  Level New York Center
06:13PM 41.7367 -76.1081 242° Southwest 237 273 38,000  Level New York Center
06:14PM 41.7042 -76.1858 241° Southwest 237 273 38,000  Level New York Center
06:15PM 41.6714 -76.2639 241° Southwest 237 273 38,000  Level New York Center
06:16PM 41.6364 -76.3442 240° Southwest 237 273 38,000  Level New York Center
06:17PM 41.6036 -76.4219 241° Southwest 237 273 38,000  Level New York Center
06:18PM 41.5683 -76.5022 240° Southwest 242 278 38,000  Level New York Center
06:19PM 41.5333 -76.5822 240° Southwest 242 278 38,000  Level New York Center
06:20PM 41.5003 -76.6625 241° Southwest 242 278 38,000  Level New York Center
06:21PM 41.4650 -76.7425 240° Southwest 242 278 38,000 -120 Level New York Center
06:22PM 41.4317 -76.8225 241° Southwest 247 284 37,800 -600 Descending New York Center
06:23PM 41.3942 -76.9078 240° Southwest 254 292 36,800 -1,140 Descending New York Center
06:24PM 41.3564 -76.9928 239° Southwest 259 298 35,600 -1,260 Descending New York Center
06:25PM 41.3228 -77.0725 241° Southwest 265 305 34,300 -1,500 Descending New York Center
06:26PM 41.2828 -77.1628 239° Southwest 280 322 32,600 -1,860 Descending New York Center
06:27PM 41.2397 -77.2608 240° Southwest 300 345 30,600 -2,100 Descending New York Center
06:28PM 41.1894 -77.3800 241° Southwest 331 381 28,500 -1,560 Descending New York Center
06:29PM 41.1394 -77.4908 239° Southwest 342 394 27,500 -1,020 Descending New York Center
06:30PM 41.0914 -77.6019 240° Southwest 342 394 26,500 -780 Descending New York Center
06:31PM 41.0414 -77.7097 238° Southwest 347 399 26,000 -300 Descending New York Center
06:32PM 40.9956 -77.8178 241° Southwest 347 399 26,000  Level New York Center
06:33PM 40.9656 -77.8853 240° Southwest 339 390 26,000  Level Cleveland Center
06:34PM 40.9294 -77.9992 247° West 340 391 26,000  Level Cleveland Center
06:35PM 40.9383 -78.1272 275° West 352 405 26,000  Level Cleveland Center
06:36PM 40.9647 -78.2794 283° West 364 419 26,000  Level Cleveland Center
06:37PM 40.9850 -78.4086 282° West 361 415 26,000  Level Cleveland Center
06:38PM 41.0067 -78.5372 283° West 361 415 26,000  Level Cleveland Center
06:39PM 41.0267 -78.6653 282° West 358 412 26,000  Level Cleveland Center
06:40PM 41.0478 -78.7967 282° West 364 419 26,000  Level Cleveland Center
06:41PM 41.0694 -78.9264 283° West 363 418 26,000  Level Cleveland Center
06:42PM 41.0922 -79.0797 281° West 358 412 26,000  Level Cleveland Center
06:43PM 41.1122 -79.2083 282° West 358 412 26,000  Level Cleveland Center
06:45PM 41.1325 -79.3367 282° West 359 413 26,000  Level Cleveland Center
06:46PM 41.1519 -79.4644 281° West 357 411 26,000  Level Cleveland Center
06:47PM 41.1714 -79.5933 281° West 358 412 26,000 -600 Level Cleveland Center
06:48PM 41.1928 -79.7358 281° West 358 412 24,800 -1,380 Descending Cleveland Center
06:49PM 41.2136 -79.8725 281° West 378 435 23,200 -1,560 Descending Cleveland Center
06:50PM 41.2364 -80.0203 282° West 380 437 21,600 -1,500 Descending Cleveland Center
06:51PM 41.2564 -80.1525 281° West 368 423 20,100 -780 Descending Cleveland Center
06:52PM 41.2742 -80.2772 281° West 349 402 20,000 -780 Descending Cleveland Center
06:53PM 41.2917 -80.4003 281° West 317 365 18,600 -1,740 Descending Cleveland Center
06:54PM 41.3075 -80.5186 280° West 282 325 16,500 -1,980 Descending Cleveland Center
06:55PM 41.3219 -80.6175 281° West 273 314 14,600 -1,740 Descending Cleveland Center
06:56PM 41.3447 -80.7164 287° West 278 320 13,000 -1,440 Descending Cleveland Center
06:56PM 41.3564 -80.7389 305° West 290 334 12,800 -1,380 Descending Cleveland Center
06:57PM 41.3767 -80.7975 295° West 278 320 11,900 -1,500 Descending Cleveland Center
06:57PM 41.3825 -80.8089 304° West 281 323 11,600 -1,500 Descending Cleveland Center
06:58PM 41.4058 -80.8742 295° West 282 325 10,600 -1,380 Descending Cleveland Center
06:58PM 41.4172 -80.9025 298° West 281 323 10,200 -1,500 Descending Cleveland Center
06:59PM 41.4436 -80.9744 296° West 285 328 9,100 -1,440 Descending Cleveland Center
06:59PM 41.4500 -80.9994 289° West 282 325 8,700 -1,440 Descending Cleveland Center
07:00PM 41.4667 -81.0728 287° West 274 315 7,700 -1,380 Descending Cleveland Center
07:00PM 41.4728 -81.0981 288° West 281 323 7,300 -1,380 Descending Cleveland Center
07:01PM 41.4914 -81.1769 288° West 269 310 6,200 -1,200 Descending Cleveland Center
07:01PM 41.4992 -81.2086 288° West 271 312 6,100 -1,020 Descending Cleveland Center
07:02PM 41.5158 -81.2811 287° West 254 292 5,100 -1,260 Descending Cleveland Center
07:02PM 41.5203 -81.2969 291° West 256 295 4,800 -1,620 Descending Cleveland Center
07:03PM 41.5361 -81.3597 289° West 222 255 3,500 -1,680 Descending Cleveland Center
07:03PM 41.5417 -81.3764 294° West 238 274 3,100 -840 Descending Cleveland Center
07:04PM 41.5214 -81.4408 247° West 204 235 2,400 -540 Descending Cleveland Center
07:05PM 41.5008 -81.4744 231° Southwest 135 155 2,200 -240 Descending Cleveland Center
07:05PM 41.5039 -81.4825 297° West 166 191 2,200 -660 Level Cleveland Center
07:06PM 41.5331 -81.5131 322° Northwest 128 147 1,500 -720 Descending Cleveland Center
07:06PM 41.5328 -81.5128 143° Southeast 142 163 1,500 -480 Level Cleveland Center
07:07PM 41.5633 -81.4925 26° Northeast 126 145 1,000 -540 Descending Cleveland Center
07:09PM 41.5651 -81.4864 270° West  Level Estimated